MAPA DE AEROPUERTO

INFORMACIÓN METAR y TAF

METAR FOR GMMX
ADDS - METARS form results

(1503 UTC 24 October 2020)
Data provider http://aviationweather.gov/metar/data/
 
METAR text: GMMX 241500Z 04005KT 350V100 CAVOK 26/08 Q1023 NOSIG
Conditions at: GMMX (MARRAKECH/MENARA, MA) observed 1500 UTC 24 October 2020
Temperature: 26.0°C (79°F)
Dewpoint: 8.0°C (46°F) [RH = 32%]
Pressure (altimeter): 30.21 inches Hg (1023.0 mb)
Winds: from the NE (40 degrees) at 6 MPH (5 knots; 2.6 m/s)
Visibility: 6 or more miles (10+ km)
Ceiling: ceiling and visibility are OK
Clouds: unknown
Weather: no significant weather observed at this time

METAR text: GMMX 241430Z VRB04KT CAVOK 26/09 Q1023 NOSIG
Conditions at: GMMX (MARRAKECH/MENARA, MA) observed 1430 UTC 24 October 2020
Temperature: 26.0°C (79°F)
Dewpoint: 9.0°C (48°F) [RH = 34%]
Pressure (altimeter): 30.21 inches Hg (1023.0 mb)
Winds: variable direction winds at 5 MPH (4 knots; 2.1 m/s)
Visibility: 6 or more miles (10+ km)
Ceiling: ceiling and visibility are OK
Clouds: unknown
Weather: no significant weather observed at this time

Forecast for: GMMX (MARRAKECH/MENARA, MA)
Text: TAF GMMX 241100Z 2412/2518 04008KT CAVOK
Forecast period: 1200 UTC 24 October 2020 to 1800 UTC 25 October 2020
Forecast type: FROM: standard forecast or significant change
Winds: from the NE (40 degrees) at 9 MPH (8 knots; 4.1 m/s)
Visibility: 6 or more miles (10+ km)
Ceiling: unknown
Clouds: missing
Weather: NSW  (no significant weather)